createdAt,value
2023-02-02T00:03:20.872Z,35.8
2023-02-02T00:09:26.614Z,35.8
2023-02-02T00:15:32.528Z,35.7
2023-02-02T00:21:38.510Z,35.8
2023-02-02T00:27:44.312Z,35.7
2023-02-02T00:33:49.513Z,35.8
2023-02-02T00:39:55.469Z,35.9
2023-02-02T00:46:00.895Z,35.9
2023-02-02T00:52:07.195Z,36
2023-02-02T00:58:13.201Z,36
2023-02-02T01:04:18.997Z,36.1
2023-02-02T01:10:24.519Z,36.1
2023-02-02T01:16:30.303Z,36.2
2023-02-02T01:22:36.279Z,36.3
2023-02-02T01:28:42.683Z,36.1
2023-02-02T01:34:48.122Z,36.2
2023-02-02T01:40:53.471Z,36.2
2023-02-02T01:46:59.101Z,36.4
2023-02-02T01:53:05.051Z,36.2
2023-02-02T01:59:10.466Z,36.4
2023-02-02T02:05:16.203Z,36.2
2023-02-02T02:11:21.880Z,36.2
2023-02-02T02:17:27.056Z,36.2
2023-02-02T02:23:32.262Z,36.2
2023-02-02T02:29:37.774Z,36.2
2023-02-02T02:35:43.562Z,36.2
2023-02-02T02:41:49.518Z,36.2
2023-02-02T02:47:55.104Z,36.3
2023-02-02T02:54:01.284Z,36.3
2023-02-02T03:00:07.277Z,36.3
2023-02-02T03:06:13.036Z,36.2
2023-02-02T03:12:19.233Z,36.2
2023-02-02T03:18:24.794Z,36.2
2023-02-02T03:24:29.671Z,36.3
2023-02-02T03:30:35.249Z,36.3
2023-02-02T03:36:41.528Z,36.3
2023-02-02T03:42:47.505Z,36.4
2023-02-02T03:48:53.289Z,36.3
2023-02-02T03:54:59.471Z,36.4
2023-02-02T04:01:05.435Z,36.4
2023-02-02T04:07:11.437Z,36.4
2023-02-02T04:13:16.788Z,36.4
2023-02-02T04:19:22.555Z,36.4
2023-02-02T04:25:28.759Z,36.7
2023-02-02T04:31:34.567Z,36.5
2023-02-02T04:37:40.951Z,36.4
2023-02-02T04:43:47.325Z,36.3
2023-02-02T04:49:52.878Z,36.2
2023-02-02T04:55:58.742Z,35.9
2023-02-02T05:02:04.314Z,35.6
2023-02-02T05:08:09.298Z,35.4
2023-02-02T05:14:15.194Z,35.2
2023-02-02T05:20:20.937Z,35
2023-02-02T05:26:27.033Z,35
2023-02-02T05:32:32.889Z,34.9
2023-02-02T05:38:38.889Z,34.9
2023-02-02T05:44:44.052Z,34.9
2023-02-02T05:50:48.895Z,34.9
2023-02-02T05:56:55.193Z,35
2023-02-02T06:03:00.535Z,35.1
2023-02-02T06:09:06.777Z,35.1
2023-02-02T06:15:12.719Z,35.2
2023-02-02T06:21:18.722Z,35.3
2023-02-02T06:27:24.553Z,35.2
2023-02-02T06:33:30.678Z,35.3
2023-02-02T06:39:36.122Z,35.4
2023-02-02T06:45:41.903Z,35.3
2023-02-02T06:51:47.796Z,35.2
2023-02-02T06:57:53.804Z,35.2
2023-02-02T07:03:59.555Z,35.2
2023-02-02T07:10:05.326Z,35.2
2023-02-02T07:16:11.215Z,35.3
2023-02-02T07:22:17.096Z,35.2
2023-02-02T07:28:22.872Z,35.2
2023-02-02T07:34:28.565Z,35.2
2023-02-02T07:40:34.451Z,35.2
2023-02-02T07:46:41.769Z,35.4
2023-02-02T07:52:47.839Z,35.2
2023-02-02T07:58:53.651Z,35.2
2023-02-02T08:04:59.519Z,35.3
2023-02-02T08:11:05.359Z,35.3
2023-02-02T08:17:11.761Z,35.2
2023-02-02T08:23:17.187Z,35.3
2023-02-02T08:29:22.785Z,35.3
2023-02-02T08:35:28.555Z,35.3
2023-02-02T08:41:34.541Z,35.3
2023-02-02T08:47:40.216Z,35.4
2023-02-02T08:53:46.618Z,35.4
2023-02-02T08:59:52.810Z,35.4
2023-02-02T09:05:58.988Z,35.5
2023-02-02T09:12:04.965Z,35.5
2023-02-02T09:18:10.761Z,35.5
2023-02-02T09:24:16.405Z,35.5
2023-02-02T09:30:22.362Z,35.6
2023-02-02T09:36:28.523Z,35.6
2023-02-02T09:42:34.121Z,35.6
2023-02-02T09:48:39.911Z,35.6
2023-02-02T09:54:46.004Z,35.7
2023-02-02T10:00:52.415Z,35.7
2023-02-02T10:06:58.192Z,35.8
2023-02-02T10:13:03.873Z,35.8
2023-02-02T10:19:09.672Z,35.9
2023-02-02T10:25:15.726Z,35.9
2023-02-02T10:31:21.586Z,36
2023-02-02T10:37:27.864Z,36
2023-02-02T10:43:33.642Z,36
2023-02-02T10:49:38.684Z,36
2023-02-02T10:55:44.244Z,36.1
2023-02-02T11:01:50.444Z,36.2
2023-02-02T11:07:56.148Z,36.1
2023-02-02T11:14:01.197Z,36.1
2023-02-02T11:20:06.552Z,36.3
2023-02-02T11:26:12.441Z,36.2
2023-02-02T11:32:18.127Z,36.2
2023-02-02T11:38:24.078Z,36.4
2023-02-02T11:44:29.600Z,36.5
2023-02-02T11:50:35.975Z,36.5
2023-02-02T11:56:41.407Z,36.6
2023-02-02T12:02:47.520Z,36.5
2023-02-02T12:08:53.304Z,36.6
2023-02-02T12:14:59.688Z,36.7
2023-02-02T12:21:05.650Z,36.9
2023-02-02T12:27:11.450Z,36.8
2023-02-02T12:33:17.473Z,36.9
2023-02-02T12:39:23.475Z,37.1
2023-02-02T12:45:29.110Z,37
2023-02-02T12:51:35.240Z,37.1
2023-02-02T12:57:40.927Z,37.3
2023-02-02T13:03:47.123Z,37.3
2023-02-02T13:09:52.946Z,37.4
2023-02-02T13:15:58.884Z,37.5
2023-02-02T13:22:05.085Z,37.5
2023-02-02T13:28:10.485Z,37.6
2023-02-02T13:34:16.871Z,37.6
2023-02-02T13:40:22.602Z,37.7
2023-02-02T13:46:28.390Z,37.8
2023-02-02T13:52:34.367Z,37.8
2023-02-02T13:58:40.370Z,37.7
2023-02-02T14:04:46.544Z,37.7
2023-02-02T14:10:51.759Z,37.4
2023-02-02T14:16:57.946Z,37.1
2023-02-02T14:23:04.121Z,36.8
2023-02-02T14:29:09.866Z,36.6
2023-02-02T14:35:16.242Z,36.5
2023-02-02T14:41:21.880Z,36.3
2023-02-02T14:47:28.202Z,36.3
2023-02-02T14:53:34.196Z,36.2
2023-02-02T14:59:40.362Z,36.2
2023-02-02T15:05:46.773Z,36.2
2023-02-02T15:11:52.328Z,36.3
2023-02-02T15:18:00.863Z,36.3
2023-02-02T15:24:06.831Z,36.4
2023-02-02T15:30:12.945Z,36.5
2023-02-02T15:36:19.121Z,36.5
2023-02-02T15:42:24.761Z,36.7
2023-02-02T15:48:30.498Z,36.7
2023-02-02T15:54:36.240Z,36.7
2023-02-02T16:00:42.637Z,36.8
2023-02-02T16:06:48.688Z,36.9
2023-02-02T16:12:54.432Z,36.8
2023-02-02T16:19:00.800Z,36.7
2023-02-02T16:25:06.367Z,36.8
2023-02-02T16:31:12.341Z,36.8
2023-02-02T16:37:18.122Z,36.8
2023-02-02T16:43:23.889Z,36.8
2023-02-02T16:49:30.082Z,36.8
2023-02-02T16:55:52.702Z,36.7
2023-02-02T17:01:59.651Z,36.7
2023-02-02T17:08:06.043Z,36.7
2023-02-02T17:14:12.439Z,36.9
2023-02-02T17:20:18.351Z,36.8
2023-02-02T17:26:24.628Z,36.7
2023-02-02T17:32:30.438Z,36.8
2023-02-02T17:38:35.612Z,36.8
2023-02-02T17:44:41.521Z,36.7
2023-02-02T17:50:47.742Z,36.8
2023-02-02T17:56:53.487Z,36.8
2023-02-02T18:03:00.590Z,36.8
2023-02-02T18:09:06.677Z,36.8
2023-02-02T18:15:12.846Z,36.8
2023-02-02T18:21:19.082Z,36.8
2023-02-02T18:27:25.439Z,36.9
2023-02-02T18:33:31.225Z,36.9
2023-02-02T18:39:36.768Z,36.9
2023-02-02T18:45:42.671Z,36.9
2023-02-02T18:51:48.831Z,36.9
2023-02-02T18:57:55.147Z,37
2023-02-02T19:04:00.970Z,36.9
2023-02-02T19:10:06.903Z,36.9
2023-02-02T19:16:13.111Z,36.9
2023-02-02T19:22:19.269Z,36.9
2023-02-02T19:28:25.879Z,36.9
2023-02-02T19:34:31.602Z,36.9
2023-02-02T19:40:37.012Z,36.9
2023-02-02T19:46:42.651Z,37
2023-02-02T19:52:48.653Z,37
2023-02-02T19:58:54.325Z,37
2023-02-02T20:05:00.948Z,37
2023-02-02T20:11:06.598Z,37
2023-02-02T20:17:13.300Z,37
2023-02-02T20:23:19.035Z,37.1
2023-02-02T20:29:24.569Z,37
2023-02-02T20:35:30.655Z,37
2023-02-02T20:41:36.679Z,37.1
2023-02-02T20:47:42.197Z,37.1
2023-02-02T20:53:48.371Z,37.1
2023-02-02T20:59:54.364Z,37.1
2023-02-02T21:06:00.361Z,37.1
2023-02-02T21:12:06.329Z,37.2
2023-02-02T21:18:12.405Z,37.2
2023-02-02T21:24:18.490Z,37.3
2023-02-02T21:30:24.695Z,37.3
2023-02-02T21:36:31.045Z,37.3
2023-02-02T21:42:37.050Z,37.4
2023-02-02T21:48:43.239Z,37.4
2023-02-02T21:54:49.432Z,37.4
2023-02-02T22:00:55.407Z,37.5
2023-02-02T22:07:01.277Z,37.5
2023-02-02T22:13:06.958Z,37.6
2023-02-02T22:19:13.156Z,37.6
2023-02-02T22:25:19.130Z,37.6
2023-02-02T22:31:25.419Z,37.7
2023-02-02T22:37:31.248Z,37.7
2023-02-02T22:43:37.485Z,37.7
2023-02-02T22:49:43.450Z,37.8
2023-02-02T22:55:49.857Z,37.8
2023-02-02T23:01:55.222Z,37.9
2023-02-02T23:08:01.211Z,37.9
2023-02-02T23:14:06.976Z,37.9
2023-02-02T23:20:13.580Z,38
2023-02-02T23:26:19.167Z,38.1
2023-02-02T23:32:25.345Z,38.1
2023-02-02T23:38:31.171Z,38.2
2023-02-02T23:44:37.299Z,38.2
2023-02-02T23:50:42.757Z,38.2
2023-02-02T23:56:48.551Z,38.2
